sensor_id;sensor_type;location;lat;lon;timestamp;P1;durP1;ratioP1;P2;durP2;ratioP2
69369;SDS011;56530;42.640;23.372;2023-05-10T00:02:23;5.93;;;5.43;;
69369;SDS011;56530;42.640;23.372;2023-05-10T00:04:49;6.07;;;5.57;;
69369;SDS011;56530;42.640;23.372;2023-05-10T00:07:14;5.87;;;5.37;;
69369;SDS011;56530;42.640;23.372;2023-05-10T00:09:42;4.70;;;4.40;;
69369;SDS011;56530;42.640;23.372;2023-05-10T00:12:07;5.03;;;4.47;;
69369;SDS011;56530;42.640;23.372;2023-05-10T00:14:33;5.47;;;5.07;;
69369;SDS011;56530;42.640;23.372;2023-05-10T00:16:58;5.93;;;5.53;;
69369;SDS011;56530;42.640;23.372;2023-05-10T00:19:23;6.07;;;5.57;;
69369;SDS011;56530;42.640;23.372;2023-05-10T00:21:49;5.65;;;5.15;;
69369;SDS011;56530;42.640;23.372;2023-05-10T00:24:14;6.43;;;5.80;;
69369;SDS011;56530;42.640;23.372;2023-05-10T00:26:40;6.37;;;5.80;;
69369;SDS011;56530;42.640;23.372;2023-05-10T00:29:07;6.13;;;5.70;;
69369;SDS011;56530;42.640;23.372;2023-05-10T00:31:32;6.80;;;6.30;;
69369;SDS011;56530;42.640;23.372;2023-05-10T00:33:57;7.00;;;6.40;;
69369;SDS011;56530;42.640;23.372;2023-05-10T00:36:23;7.27;;;6.57;;
69369;SDS011;56530;42.640;23.372;2023-05-10T00:38:48;6.50;;;5.90;;
69369;SDS011;56530;42.640;23.372;2023-05-10T00:41:14;6.60;;;6.10;;
69369;SDS011;56530;42.640;23.372;2023-05-10T00:43:39;7.20;;;6.60;;
69369;SDS011;56530;42.640;23.372;2023-05-10T00:46:04;6.70;;;6.20;;
69369;SDS011;56530;42.640;23.372;2023-05-10T00:48:30;6.00;;;5.60;;
69369;SDS011;56530;42.640;23.372;2023-05-10T00:50:56;6.43;;;5.93;;
69369;SDS011;56530;42.640;23.372;2023-05-10T00:53:22;7.30;;;6.72;;
69369;SDS011;56530;42.640;23.372;2023-05-10T00:55:47;7.70;;;7.00;;
69369;SDS011;56530;42.640;23.372;2023-05-10T00:58:12;7.50;;;6.90;;
69369;SDS011;56530;42.640;23.372;2023-05-10T01:00:39;6.90;;;6.40;;
69369;SDS011;56530;42.640;23.372;2023-05-10T01:03:06;7.80;;;6.78;;
69369;SDS011;56530;42.640;23.372;2023-05-10T01:05:32;8.30;;;7.60;;
69369;SDS011;56530;42.640;23.372;2023-05-10T01:07:57;8.17;;;7.40;;
69369;SDS011;56530;42.640;23.372;2023-05-10T01:10:23;8.27;;;7.57;;
69369;SDS011;56530;42.640;23.372;2023-05-10T01:12:48;7.93;;;7.23;;
69369;SDS011;56530;42.640;23.372;2023-05-10T01:15:14;8.17;;;7.47;;
69369;SDS011;56530;42.640;23.372;2023-05-10T01:17:42;7.63;;;7.03;;
69369;SDS011;56530;42.640;23.372;2023-05-10T01:20:07;7.70;;;7.03;;
69369;SDS011;56530;42.640;23.372;2023-05-10T01:34:06;5.13;;;4.72;;
69369;SDS011;56530;42.640;23.372;2023-05-10T01:39:32;5.25;;;4.85;;
69369;SDS011;56530;42.640;23.372;2023-05-10T01:42:16;4.35;;;4.00;;
69369;SDS011;56530;42.640;23.372;2023-05-10T01:45:05;5.10;;;3.95;;
69369;SDS011;56530;42.640;23.372;2023-05-10T01:47:42;4.40;;;4.10;;
69369;SDS011;56530;42.640;23.372;2023-05-10T01:50:09;4.38;;;3.97;;
69369;SDS011;56530;42.640;23.372;2023-05-10T01:52:41;4.90;;;4.15;;
69369;SDS011;56530;42.640;23.372;2023-05-10T01:55:13;3.80;;;3.50;;
69369;SDS011;56530;42.640;23.372;2023-05-10T01:57:40;5.15;;;3.95;;
69369;SDS011;56530;42.640;23.372;2023-05-10T02:00:08;4.63;;;4.22;;
69369;SDS011;56530;42.640;23.372;2023-05-10T02:02:37;4.50;;;4.10;;
69369;SDS011;56530;42.640;23.372;2023-05-10T02:05:05;4.07;;;3.70;;
69369;SDS011;56530;42.640;23.372;2023-05-10T02:07:32;3.30;;;3.00;;
69369;SDS011;56530;42.640;23.372;2023-05-10T02:10:00;4.40;;;4.00;;
69369;SDS011;56530;42.640;23.372;2023-05-10T02:12:26;4.25;;;3.85;;
69369;SDS011;56530;42.640;23.372;2023-05-10T02:14:52;4.63;;;4.22;;
69369;SDS011;56530;42.640;23.372;2023-05-10T02:17:18;4.70;;;3.97;;
69369;SDS011;56530;42.640;23.372;2023-05-10T02:19:43;5.03;;;4.17;;
69369;SDS011;56530;42.640;23.372;2023-05-10T02:22:10;5.50;;;5.00;;
69369;SDS011;56530;42.640;23.372;2023-05-10T02:24:36;8.35;;;4.15;;
69369;SDS011;56530;42.640;23.372;2023-05-10T02:27:03;4.40;;;4.05;;
69369;SDS011;56530;42.640;23.372;2023-05-10T02:29:29;5.15;;;3.92;;
69369;SDS011;56530;42.640;23.372;2023-05-10T02:31:55;4.80;;;4.32;;
69369;SDS011;56530;42.640;23.372;2023-05-10T02:34:21;5.70;;;4.40;;
69369;SDS011;56530;42.640;23.372;2023-05-10T02:36:47;4.70;;;4.30;;
69369;SDS011;56530;42.640;23.372;2023-05-10T02:39:14;4.28;;;3.88;;
69369;SDS011;56530;42.640;23.372;2023-05-10T02:41:42;5.22;;;4.70;;
69369;SDS011;56530;42.640;23.372;2023-05-10T02:44:09;4.68;;;4.00;;
69369;SDS011;56530;42.640;23.372;2023-05-10T02:46:35;4.88;;;4.38;;
69369;SDS011;56530;42.640;23.372;2023-05-10T02:49:02;4.93;;;4.27;;
69369;SDS011;56530;42.640;23.372;2023-05-10T02:51:28;5.63;;;4.30;;
69369;SDS011;56530;42.640;23.372;2023-05-10T02:53:56;7.65;;;4.32;;
69369;SDS011;56530;42.640;23.372;2023-05-10T02:56:23;6.45;;;4.68;;
69369;SDS011;56530;42.640;23.372;2023-05-10T02:58:50;5.05;;;4.55;;
69369;SDS011;56530;42.640;23.372;2023-05-10T03:01:16;6.15;;;5.55;;
69369;SDS011;56530;42.640;23.372;2023-05-10T03:03:42;5.87;;;5.17;;
69369;SDS011;56530;42.640;23.372;2023-05-10T03:06:07;6.93;;;5.35;;
69369;SDS011;56530;42.640;23.372;2023-05-10T03:08:33;6.20;;;5.60;;
69369;SDS011;56530;42.640;23.372;2023-05-10T03:14:01;5.63;;;5.00;;
69369;SDS011;56530;42.640;23.372;2023-05-10T03:16:56;5.47;;;4.97;;
69369;SDS011;56530;42.640;23.372;2023-05-10T03:19:57;5.57;;;4.93;;
69369;SDS011;56530;42.640;23.372;2023-05-10T03:22:26;6.40;;;4.95;;
69369;SDS011;56530;42.640;23.372;2023-05-10T03:24:58;5.45;;;5.00;;
69369;SDS011;56530;42.640;23.372;2023-05-10T03:27:26;5.75;;;4.78;;
69369;SDS011;56530;42.640;23.372;2023-05-10T03:29:52;5.57;;;4.72;;
69369;SDS011;56530;42.640;23.372;2023-05-10T03:32:18;5.97;;;5.13;;
69369;SDS011;56530;42.640;23.372;2023-05-10T03:34:43;5.43;;;4.30;;
69369;SDS011;56530;42.640;23.372;2023-05-10T03:37:09;5.20;;;4.70;;
69369;SDS011;56530;42.640;23.372;2023-05-10T03:39:34;4.63;;;4.23;;
69369;SDS011;56530;42.640;23.372;2023-05-10T03:42:00;5.07;;;4.68;;
69369;SDS011;56530;42.640;23.372;2023-05-10T03:44:25;4.80;;;4.40;;
69369;SDS011;56530;42.640;23.372;2023-05-10T03:46:51;5.20;;;4.00;;
69369;SDS011;56530;42.640;23.372;2023-05-10T03:49:16;5.18;;;4.50;;
69369;SDS011;56530;42.640;23.372;2023-05-10T03:51:42;5.85;;;4.15;;
69369;SDS011;56530;42.640;23.372;2023-05-10T03:54:08;5.20;;;4.13;;
69369;SDS011;56530;42.640;23.372;2023-05-10T03:56:33;4.93;;;3.37;;
69369;SDS011;56530;42.640;23.372;2023-05-10T03:58:58;4.73;;;4.33;;
69369;SDS011;56530;42.640;23.372;2023-05-10T04:01:24;4.77;;;4.13;;
69369;SDS011;56530;42.640;23.372;2023-05-10T04:03:49;4.18;;;3.85;;
69369;SDS011;56530;42.640;23.372;2023-05-10T04:06:15;4.93;;;4.50;;
69369;SDS011;56530;42.640;23.372;2023-05-10T04:08:40;5.00;;;4.50;;
69369;SDS011;56530;42.640;23.372;2023-05-10T04:11:09;4.93;;;4.53;;
69369;SDS011;56530;42.640;23.372;2023-05-10T04:13:36;7.13;;;4.55;;
69369;SDS011;56530;42.640;23.372;2023-05-10T04:16:02;4.95;;;4.55;;
69369;SDS011;56530;42.640;23.372;2023-05-10T04:18:27;5.87;;;4.63;;
69369;SDS011;56530;42.640;23.372;2023-05-10T04:20:53;5.57;;;4.73;;
69369;SDS011;56530;42.640;23.372;2023-05-10T04:23:18;5.20;;;4.70;;
69369;SDS011;56530;42.640;23.372;2023-05-10T04:25:43;5.57;;;5.03;;
69369;SDS011;56530;42.640;23.372;2023-05-10T04:28:09;4.43;;;4.03;;
69369;SDS011;56530;42.640;23.372;2023-05-10T04:30:34;5.40;;;4.90;;
69369;SDS011;56530;42.640;23.372;2023-05-10T04:33:00;5.80;;;5.30;;
69369;SDS011;56530;42.640;23.372;2023-05-10T04:35:26;5.72;;;5.20;;
69369;SDS011;56530;42.640;23.372;2023-05-10T04:37:53;6.78;;;4.85;;
69369;SDS011;56530;42.640;23.372;2023-05-10T04:40:18;6.17;;;5.40;;
69369;SDS011;56530;42.640;23.372;2023-05-10T04:42:44;5.18;;;4.68;;
69369;SDS011;56530;42.640;23.372;2023-05-10T04:45:10;6.75;;;5.35;;
69369;SDS011;56530;42.640;23.372;2023-05-10T04:47:35;6.03;;;5.30;;
69369;SDS011;56530;42.640;23.372;2023-05-10T04:50:02;5.47;;;5.00;;
69369;SDS011;56530;42.640;23.372;2023-05-10T04:52:28;6.03;;;5.20;;
69369;SDS011;56530;42.640;23.372;2023-05-10T04:54:53;6.07;;;5.50;;
69369;SDS011;56530;42.640;23.372;2023-05-10T04:57:19;7.13;;;5.27;;
69369;SDS011;56530;42.640;23.372;2023-05-10T04:59:44;5.80;;;5.20;;
69369;SDS011;56530;42.640;23.372;2023-05-10T05:02:09;5.90;;;5.30;;
69369;SDS011;56530;42.640;23.372;2023-05-10T05:04:35;5.80;;;5.20;;
69369;SDS011;56530;42.640;23.372;2023-05-10T05:07:00;6.68;;;5.68;;
69369;SDS011;56530;42.640;23.372;2023-05-10T05:09:26;7.00;;;6.30;;
69369;SDS011;56530;42.640;23.372;2023-05-10T05:11:51;6.80;;;6.17;;
69369;SDS011;56530;42.640;23.372;2023-05-10T05:14:17;6.60;;;6.00;;
69369;SDS011;56530;42.640;23.372;2023-05-10T05:16:42;6.70;;;6.07;;
69369;SDS011;56530;42.640;23.372;2023-05-10T05:19:07;7.17;;;6.10;;
69369;SDS011;56530;42.640;23.372;2023-05-10T05:21:33;7.53;;;6.83;;
69369;SDS011;56530;42.640;23.372;2023-05-10T05:23:58;7.10;;;6.40;;
69369;SDS011;56530;42.640;23.372;2023-05-10T05:26:23;6.80;;;6.17;;
69369;SDS011;56530;42.640;23.372;2023-05-10T05:28:49;10.07;;;6.93;;
69369;SDS011;56530;42.640;23.372;2023-05-10T05:31:17;9.57;;;7.10;;
69369;SDS011;56530;42.640;23.372;2023-05-10T05:33:42;7.80;;;6.97;;
69369;SDS011;56530;42.640;23.372;2023-05-10T05:36:08;7.73;;;6.93;;
69369;SDS011;56530;42.640;23.372;2023-05-10T05:38:34;7.90;;;7.07;;
69369;SDS011;56530;42.640;23.372;2023-05-10T05:40:59;7.53;;;6.40;;
69369;SDS011;56530;42.640;23.372;2023-05-10T05:43:24;7.60;;;6.37;;
69369;SDS011;56530;42.640;23.372;2023-05-10T05:45:51;7.32;;;6.47;;
69369;SDS011;56530;42.640;23.372;2023-05-10T05:48:18;7.60;;;6.90;;
69369;SDS011;56530;42.640;23.372;2023-05-10T05:50:43;7.57;;;6.87;;
69369;SDS011;56530;42.640;23.372;2023-05-10T05:53:10;8.53;;;7.50;;
69369;SDS011;56530;42.640;23.372;2023-05-10T05:55:35;9.57;;;7.23;;
69369;SDS011;56530;42.640;23.372;2023-05-10T05:58:01;10.33;;;7.67;;
69369;SDS011;56530;42.640;23.372;2023-05-10T06:00:26;9.77;;;8.30;;
69369;SDS011;56530;42.640;23.372;2023-05-10T06:02:52;11.55;;;9.07;;
69369;SDS011;56530;42.640;23.372;2023-05-10T06:05:17;9.53;;;8.53;;
69369;SDS011;56530;42.640;23.372;2023-05-10T06:07:43;9.73;;;8.73;;
69369;SDS011;56530;42.640;23.372;2023-05-10T06:10:08;9.60;;;8.53;;
69369;SDS011;56530;42.640;23.372;2023-05-10T06:12:34;10.02;;;7.90;;
69369;SDS011;56530;42.640;23.372;2023-05-10T06:15:00;8.93;;;8.03;;
69369;SDS011;56530;42.640;23.372;2023-05-10T06:17:25;8.80;;;8.00;;
69369;SDS011;56530;42.640;23.372;2023-05-10T06:19:51;9.80;;;8.80;;
69369;SDS011;56530;42.640;23.372;2023-05-10T06:22:16;9.52;;;8.38;;
69369;SDS011;56530;42.640;23.372;2023-05-10T06:24:42;8.77;;;7.90;;
69369;SDS011;56530;42.640;23.372;2023-05-10T06:27:08;10.27;;;9.18;;
69369;SDS011;56530;42.640;23.372;2023-05-10T06:29:33;8.70;;;7.88;;
69369;SDS011;56530;42.640;23.372;2023-05-10T06:31:59;9.30;;;8.40;;
69369;SDS011;56530;42.640;23.372;2023-05-10T06:34:24;9.60;;;8.70;;
69369;SDS011;56530;42.640;23.372;2023-05-10T06:36:50;11.77;;;9.27;;
69369;SDS011;56530;42.640;23.372;2023-05-10T06:39:15;9.93;;;8.93;;
69369;SDS011;56530;42.640;23.372;2023-05-10T06:41:41;12.17;;;9.83;;
69369;SDS011;56530;42.640;23.372;2023-05-10T06:44:06;9.68;;;8.63;;
69369;SDS011;56530;42.640;23.372;2023-05-10T06:46:32;9.43;;;8.33;;
69369;SDS011;56530;42.640;23.372;2023-05-10T06:48:57;8.30;;;7.20;;
69369;SDS011;56530;42.640;23.372;2023-05-10T06:51:23;9.37;;;7.20;;
69369;SDS011;56530;42.640;23.372;2023-05-10T06:53:48;8.00;;;7.20;;
69369;SDS011;56530;42.640;23.372;2023-05-10T06:56:14;9.88;;;8.05;;
69369;SDS011;56530;42.640;23.372;2023-05-10T06:58:39;13.47;;;8.57;;
69369;SDS011;56530;42.640;23.372;2023-05-10T07:01:05;9.07;;;8.17;;
69369;SDS011;56530;42.640;23.372;2023-05-10T07:03:31;7.68;;;6.97;;
69369;SDS011;56530;42.640;23.372;2023-05-10T07:06:00;9.00;;;8.20;;
69369;SDS011;56530;42.640;23.372;2023-05-10T07:08:28;8.33;;;7.43;;
69369;SDS011;56530;42.640;23.372;2023-05-10T07:10:58;8.93;;;8.02;;
69369;SDS011;56530;42.640;23.372;2023-05-10T07:13:28;10.95;;;8.52;;
69369;SDS011;56530;42.640;23.372;2023-05-10T07:15:54;11.95;;;9.40;;
69369;SDS011;56530;42.640;23.372;2023-05-10T07:18:20;13.13;;;9.20;;
69369;SDS011;56530;42.640;23.372;2023-05-10T07:20:45;10.30;;;8.03;;
69369;SDS011;56530;42.640;23.372;2023-05-10T07:23:11;8.37;;;7.50;;
69369;SDS011;56530;42.640;23.372;2023-05-10T07:25:36;10.03;;;7.60;;
69369;SDS011;56530;42.640;23.372;2023-05-10T07:28:02;8.48;;;7.68;;
69369;SDS011;56530;42.640;23.372;2023-05-10T07:30:28;9.52;;;8.57;;
69369;SDS011;56530;42.640;23.372;2023-05-10T07:32:53;9.10;;;8.20;;
69369;SDS011;56530;42.640;23.372;2023-05-10T07:35:18;10.37;;;8.67;;
69369;SDS011;56530;42.640;23.372;2023-05-10T07:37:44;9.40;;;8.40;;
69369;SDS011;56530;42.640;23.372;2023-05-10T07:40:10;11.03;;;8.60;;
69369;SDS011;56530;42.640;23.372;2023-05-10T07:42:35;9.43;;;8.30;;
69369;SDS011;56530;42.640;23.372;2023-05-10T07:45:01;10.07;;;9.00;;
69369;SDS011;56530;42.640;23.372;2023-05-10T07:47:26;12.07;;;8.75;;
69369;SDS011;56530;42.640;23.372;2023-05-10T07:49:52;13.30;;;9.23;;
69369;SDS011;56530;42.640;23.372;2023-05-10T07:52:17;10.25;;;8.98;;
69369;SDS011;56530;42.640;23.372;2023-05-10T07:54:43;10.87;;;9.63;;
69369;SDS011;56530;42.640;23.372;2023-05-10T07:57:09;12.40;;;10.27;;
69369;SDS011;56530;42.640;23.372;2023-05-10T07:59:35;10.60;;;9.57;;
69369;SDS011;56530;42.640;23.372;2023-05-10T08:02:00;10.10;;;9.10;;
69369;SDS011;56530;42.640;23.372;2023-05-10T08:04:25;10.67;;;9.30;;
69369;SDS011;56530;42.640;23.372;2023-05-10T08:06:51;10.77;;;9.67;;
69369;SDS011;56530;42.640;23.372;2023-05-10T08:09:16;12.30;;;9.57;;
69369;SDS011;56530;42.640;23.372;2023-05-10T08:11:42;10.57;;;9.27;;
69369;SDS011;56530;42.640;23.372;2023-05-10T08:14:08;9.27;;;8.37;;
69369;SDS011;56530;42.640;23.372;2023-05-10T08:16:33;10.93;;;9.05;;
69369;SDS011;56530;42.640;23.372;2023-05-10T08:18:59;9.90;;;8.80;;
69369;SDS011;56530;42.640;23.372;2023-05-10T08:21:24;10.80;;;9.03;;
69369;SDS011;56530;42.640;23.372;2023-05-10T08:23:51;10.20;;;8.50;;
69369;SDS011;56530;42.640;23.372;2023-05-10T08:26:16;9.03;;;8.23;;
69369;SDS011;56530;42.640;23.372;2023-05-10T08:28:41;11.40;;;9.25;;
69369;SDS011;56530;42.640;23.372;2023-05-10T08:31:07;9.97;;;9.07;;
69369;SDS011;56530;42.640;23.372;2023-05-10T08:33:32;10.70;;;9.63;;
69369;SDS011;56530;42.640;23.372;2023-05-10T08:35:58;11.15;;;8.95;;
69369;SDS011;56530;42.640;23.372;2023-05-10T08:38:23;10.03;;;9.03;;
69369;SDS011;56530;42.640;23.372;2023-05-10T08:40:49;11.65;;;9.13;;
69369;SDS011;56530;42.640;23.372;2023-05-10T08:43:21;11.73;;;8.37;;
69369;SDS011;56530;42.640;23.372;2023-05-10T08:45:46;10.77;;;8.93;;
69369;SDS011;56530;42.640;23.372;2023-05-10T08:48:14;9.80;;;8.85;;
69369;SDS011;56530;42.640;23.372;2023-05-10T08:50:41;9.27;;;7.73;;
69369;SDS011;56530;42.640;23.372;2023-05-10T08:53:10;8.45;;;7.63;;
69369;SDS011;56530;42.640;23.372;2023-05-10T08:55:37;8.68;;;7.78;;
69369;SDS011;56530;42.640;23.372;2023-05-10T08:58:04;9.43;;;8.53;;
69369;SDS011;56530;42.640;23.372;2023-05-10T09:00:30;12.18;;;8.98;;
69369;SDS011;56530;42.640;23.372;2023-05-10T09:02:57;10.98;;;8.63;;
69369;SDS011;56530;42.640;23.372;2023-05-10T09:05:22;20.13;;;17.42;;
69369;SDS011;56530;42.640;23.372;2023-05-10T09:07:48;16.70;;;13.57;;
69369;SDS011;56530;42.640;23.372;2023-05-10T09:10:13;9.60;;;8.60;;
69369;SDS011;56530;42.640;23.372;2023-05-10T09:12:40;10.43;;;9.05;;
69369;SDS011;56530;42.640;23.372;2023-05-10T09:15:05;10.00;;;8.00;;
69369;SDS011;56530;42.640;23.372;2023-05-10T09:17:32;9.53;;;8.63;;
69369;SDS011;56530;42.640;23.372;2023-05-10T09:20:02;8.32;;;7.53;;
69369;SDS011;56530;42.640;23.372;2023-05-10T09:22:29;10.80;;;9.80;;
69369;SDS011;56530;42.640;23.372;2023-05-10T09:25:05;13.43;;;9.43;;
69369;SDS011;56530;42.640;23.372;2023-05-10T09:27:38;10.60;;;9.03;;
69369;SDS011;56530;42.640;23.372;2023-05-10T09:30:04;8.80;;;8.00;;
69369;SDS011;56530;42.640;23.372;2023-05-10T09:32:38;9.85;;;8.88;;
69369;SDS011;56530;42.640;23.372;2023-05-10T09:35:14;9.38;;;8.50;;
69369;SDS011;56530;42.640;23.372;2023-05-10T09:37:46;10.10;;;9.13;;
69369;SDS011;56530;42.640;23.372;2023-05-10T09:40:16;11.30;;;8.57;;
69369;SDS011;56530;42.640;23.372;2023-05-10T09:45:23;8.18;;;7.50;;
69369;SDS011;56530;42.640;23.372;2023-05-10T09:47:50;8.63;;;7.75;;
69369;SDS011;56530;42.640;23.372;2023-05-10T09:50:15;8.60;;;7.80;;
69369;SDS011;56530;42.640;23.372;2023-05-10T09:52:54;11.70;;;8.83;;
69369;SDS011;56530;42.640;23.372;2023-05-10T09:55:38;8.70;;;7.80;;
69369;SDS011;56530;42.640;23.372;2023-05-10T09:58:05;9.15;;;8.10;;
69369;SDS011;56530;42.640;23.372;2023-05-10T10:00:44;8.27;;;7.47;;
69369;SDS011;56530;42.640;23.372;2023-05-10T10:03:13;10.15;;;8.90;;
69369;SDS011;56530;42.640;23.372;2023-05-10T10:05:40;8.38;;;7.60;;
69369;SDS011;56530;42.640;23.372;2023-05-10T10:08:07;8.93;;;8.10;;
69369;SDS011;56530;42.640;23.372;2023-05-10T10:10:35;7.80;;;7.10;;
69369;SDS011;56530;42.640;23.372;2023-05-10T10:13:01;9.75;;;8.10;;
69369;SDS011;56530;42.640;23.372;2023-05-10T10:15:27;8.02;;;7.18;;
69369;SDS011;56530;42.640;23.372;2023-05-10T10:17:52;7.80;;;6.30;;
69369;SDS011;56530;42.640;23.372;2023-05-10T10:20:19;8.77;;;7.03;;
69369;SDS011;56530;42.640;23.372;2023-05-10T10:22:45;8.50;;;6.85;;
69369;SDS011;56530;42.640;23.372;2023-05-10T10:25:12;7.28;;;6.57;;
69369;SDS011;56530;42.640;23.372;2023-05-10T10:27:44;7.33;;;6.60;;
69369;SDS011;56530;42.640;23.372;2023-05-10T10:35:38;8.13;;;6.20;;
69369;SDS011;56530;42.640;23.372;2023-05-10T10:38:04;7.18;;;6.35;;
69369;SDS011;56530;42.640;23.372;2023-05-10T10:40:30;7.63;;;6.70;;
69369;SDS011;56530;42.640;23.372;2023-05-10T10:42:57;9.85;;;6.55;;
69369;SDS011;56530;42.640;23.372;2023-05-10T10:45:23;8.57;;;7.20;;
69369;SDS011;56530;42.640;23.372;2023-05-10T10:48:35;8.50;;;7.72;;
69369;SDS011;56530;42.640;23.372;2023-05-10T10:50:45;14.23;;;6.83;;
69369;SDS011;56530;42.640;23.372;2023-05-10T10:53:13;7.57;;;6.68;;
69369;SDS011;56530;42.640;23.372;2023-05-10T10:55:48;8.33;;;6.87;;
69369;SDS011;56530;42.640;23.372;2023-05-10T10:58:32;8.73;;;7.00;;
69369;SDS011;56530;42.640;23.372;2023-05-10T11:03:37;8.15;;;6.63;;
69369;SDS011;56530;42.640;23.372;2023-05-10T11:06:03;8.77;;;6.53;;
69369;SDS011;56530;42.640;23.372;2023-05-10T11:08:29;7.43;;;6.60;;
69369;SDS011;56530;42.640;23.372;2023-05-10T11:13:31;11.40;;;6.18;;
69369;SDS011;56530;42.640;23.372;2023-05-10T11:16:19;10.63;;;6.95;;
69369;SDS011;56530;42.640;23.372;2023-05-10T11:19:19;7.10;;;6.40;;
69369;SDS011;56530;42.640;23.372;2023-05-10T11:21:48;9.95;;;6.97;;
69369;SDS011;56530;42.640;23.372;2023-05-10T11:24:16;10.15;;;7.28;;
69369;SDS011;56530;42.640;23.372;2023-05-10T11:26:43;7.40;;;6.68;;
69369;SDS011;56530;42.640;23.372;2023-05-10T11:29:08;9.67;;;6.77;;
69369;SDS011;56530;42.640;23.372;2023-05-10T11:31:34;9.33;;;6.30;;
69369;SDS011;56530;42.640;23.372;2023-05-10T11:33:59;8.02;;;6.75;;
69369;SDS011;56530;42.640;23.372;2023-05-10T11:36:29;14.38;;;6.65;;
69369;SDS011;56530;42.640;23.372;2023-05-10T11:38:57;8.60;;;6.05;;
69369;SDS011;56530;42.640;23.372;2023-05-10T11:41:23;8.60;;;6.03;;
69369;SDS011;56530;42.640;23.372;2023-05-10T11:43:50;7.60;;;6.30;;
69369;SDS011;56530;42.640;23.372;2023-05-10T11:46:18;8.25;;;6.68;;
69369;SDS011;56530;42.640;23.372;2023-05-10T11:48:45;7.32;;;6.63;;
69369;SDS011;56530;42.640;23.372;2023-05-10T11:51:12;7.55;;;6.32;;
69369;SDS011;56530;42.640;23.372;2023-05-10T11:53:37;9.37;;;7.50;;
69369;SDS011;56530;42.640;23.372;2023-05-10T11:56:07;8.07;;;7.27;;
69369;SDS011;56530;42.640;23.372;2023-05-10T11:58:33;9.77;;;7.33;;
69369;SDS011;56530;42.640;23.372;2023-05-10T12:00:59;9.15;;;8.15;;
69369;SDS011;56530;42.640;23.372;2023-05-10T12:03:25;10.10;;;7.47;;
69369;SDS011;56530;42.640;23.372;2023-05-10T12:05:52;8.77;;;7.80;;
69369;SDS011;56530;42.640;23.372;2023-05-10T12:08:20;10.00;;;8.63;;
69369;SDS011;56530;42.640;23.372;2023-05-10T12:10:46;9.73;;;8.13;;
69369;SDS011;56530;42.640;23.372;2023-05-10T12:13:12;8.60;;;7.75;;
69369;SDS011;56530;42.640;23.372;2023-05-10T12:15:39;9.82;;;7.43;;
69369;SDS011;56530;42.640;23.372;2023-05-10T12:18:05;8.73;;;7.43;;
69369;SDS011;56530;42.640;23.372;2023-05-10T12:20:30;10.00;;;8.23;;
69369;SDS011;56530;42.640;23.372;2023-05-10T12:22:56;14.70;;;8.03;;
69369;SDS011;56530;42.640;23.372;2023-05-10T12:25:23;12.05;;;9.25;;
69369;SDS011;56530;42.640;23.372;2023-05-10T12:27:50;8.77;;;7.85;;
69369;SDS011;56530;42.640;23.372;2023-05-10T12:30:21;9.45;;;8.13;;
69369;SDS011;56530;42.640;23.372;2023-05-10T12:32:50;9.40;;;8.13;;
69369;SDS011;56530;42.640;23.372;2023-05-10T12:35:17;15.85;;;8.50;;
69369;SDS011;56530;42.640;23.372;2023-05-10T12:37:46;9.98;;;7.20;;
69369;SDS011;56530;42.640;23.372;2023-05-10T12:40:12;9.27;;;7.25;;
69369;SDS011;56530;42.640;23.372;2023-05-10T12:42:38;10.57;;;8.37;;
69369;SDS011;56530;42.640;23.372;2023-05-10T12:45:05;8.57;;;7.77;;
69369;SDS011;56530;42.640;23.372;2023-05-10T12:47:31;7.43;;;6.70;;
69369;SDS011;56530;42.640;23.372;2023-05-10T12:49:57;8.80;;;7.13;;
69369;SDS011;56530;42.640;23.372;2023-05-10T12:52:24;8.03;;;7.07;;
69369;SDS011;56530;42.640;23.372;2023-05-10T12:54:49;9.02;;;7.78;;
69369;SDS011;56530;42.640;23.372;2023-05-10T12:57:15;8.80;;;7.90;;
69369;SDS011;56530;42.640;23.372;2023-05-10T12:59:40;10.17;;;6.87;;
69369;SDS011;56530;42.640;23.372;2023-05-10T13:02:06;7.93;;;7.17;;
69369;SDS011;56530;42.640;23.372;2023-05-10T13:04:31;7.60;;;6.47;;
69369;SDS011;56530;42.640;23.372;2023-05-10T13:06:57;7.67;;;6.93;;
69369;SDS011;56530;42.640;23.372;2023-05-10T13:09:26;7.97;;;6.78;;
69369;SDS011;56530;42.640;23.372;2023-05-10T13:11:54;10.43;;;7.83;;
69369;SDS011;56530;42.640;23.372;2023-05-10T13:14:20;9.30;;;7.32;;
69369;SDS011;56530;42.640;23.372;2023-05-10T13:16:46;7.40;;;6.67;;
69369;SDS011;56530;42.640;23.372;2023-05-10T13:19:12;8.68;;;7.13;;
69369;SDS011;56530;42.640;23.372;2023-05-10T13:21:38;6.70;;;6.10;;
69369;SDS011;56530;42.640;23.372;2023-05-10T13:24:03;7.72;;;6.60;;
69369;SDS011;56530;42.640;23.372;2023-05-10T13:26:29;7.20;;;6.10;;
69369;SDS011;56530;42.640;23.372;2023-05-10T13:28:54;7.53;;;6.72;;
69369;SDS011;56530;42.640;23.372;2023-05-10T13:31:20;6.22;;;5.70;;
69369;SDS011;56530;42.640;23.372;2023-05-10T13:33:46;8.87;;;6.50;;
69369;SDS011;56530;42.640;23.372;2023-05-10T13:36:11;8.80;;;6.67;;
69369;SDS011;56530;42.640;23.372;2023-05-10T13:38:37;9.82;;;6.32;;
69369;SDS011;56530;42.640;23.372;2023-05-10T13:41:02;10.63;;;6.57;;
69369;SDS011;56530;42.640;23.372;2023-05-10T13:43:28;7.43;;;6.60;;
69369;SDS011;56530;42.640;23.372;2023-05-10T13:45:54;9.40;;;7.33;;
69369;SDS011;56530;42.640;23.372;2023-05-10T13:48:19;8.20;;;7.47;;
69369;SDS011;56530;42.640;23.372;2023-05-10T13:50:45;7.90;;;7.10;;
69369;SDS011;56530;42.640;23.372;2023-05-10T13:53:11;8.85;;;7.30;;
69369;SDS011;56530;42.640;23.372;2023-05-10T13:58:58;8.40;;;7.43;;
69369;SDS011;56530;42.640;23.372;2023-05-10T14:01:24;7.23;;;6.53;;
69369;SDS011;56530;42.640;23.372;2023-05-10T14:03:49;9.18;;;7.28;;
69369;SDS011;56530;42.640;23.372;2023-05-10T14:06:15;9.77;;;6.97;;
69369;SDS011;56530;42.640;23.372;2023-05-10T14:08:40;7.30;;;6.40;;
69369;SDS011;56530;42.640;23.372;2023-05-10T14:11:06;8.45;;;6.93;;
69369;SDS011;56530;42.640;23.372;2023-05-10T14:13:31;10.07;;;7.00;;
69369;SDS011;56530;42.640;23.372;2023-05-10T14:15:56;7.40;;;6.70;;
69369;SDS011;56530;42.640;23.372;2023-05-10T14:18:23;8.98;;;7.03;;
69369;SDS011;56530;42.640;23.372;2023-05-10T14:20:49;8.17;;;7.30;;
69369;SDS011;56530;42.640;23.372;2023-05-10T14:23:14;9.80;;;8.17;;
69369;SDS011;56530;42.640;23.372;2023-05-10T14:25:40;12.25;;;7.88;;
69369;SDS011;56530;42.640;23.372;2023-05-10T14:28:05;8.13;;;7.07;;
69369;SDS011;56530;42.640;23.372;2023-05-10T14:30:31;8.75;;;6.80;;
69369;SDS011;56530;42.640;23.372;2023-05-10T14:32:57;9.15;;;8.07;;
69369;SDS011;56530;42.640;23.372;2023-05-10T14:35:23;11.15;;;7.53;;
69369;SDS011;56530;42.640;23.372;2023-05-10T14:37:48;10.70;;;7.57;;
69369;SDS011;56530;42.640;23.372;2023-05-10T14:40:14;8.73;;;7.83;;
69369;SDS011;56530;42.640;23.372;2023-05-10T14:42:40;15.90;;;8.93;;
69369;SDS011;56530;42.640;23.372;2023-05-10T14:45:06;9.55;;;8.07;;
69369;SDS011;56530;42.640;23.372;2023-05-10T14:47:31;9.40;;;8.40;;
69369;SDS011;56530;42.640;23.372;2023-05-10T14:49:57;10.80;;;7.33;;
69369;SDS011;56530;42.640;23.372;2023-05-10T14:55:44;8.70;;;7.35;;
69369;SDS011;56530;42.640;23.372;2023-05-10T14:58:09;14.10;;;7.17;;
69369;SDS011;56530;42.640;23.372;2023-05-10T15:00:35;8.20;;;7.40;;
69369;SDS011;56530;42.640;23.372;2023-05-10T15:03:00;7.37;;;6.23;;
69369;SDS011;56530;42.640;23.372;2023-05-10T15:05:26;10.70;;;6.80;;
69369;SDS011;56530;42.640;23.372;2023-05-10T15:07:51;11.23;;;7.33;;